createdAt,value
2019-04-05T00:02:50.481Z,78.10
2019-04-05T00:06:57.917Z,78.10
2019-04-05T00:11:02.271Z,78.00
2019-04-05T00:15:15.286Z,78.00
2019-04-05T00:19:11.787Z,77.50
2019-04-05T00:23:14.801Z,77.90
2019-04-05T00:27:19.911Z,78.00
2019-04-05T00:31:23.055Z,77.00
2019-04-05T00:35:26.965Z,77.50
2019-04-05T00:39:31.052Z,77.70
2019-04-05T00:43:34.063Z,78.10
2019-04-05T00:47:37.072Z,78.70
2019-04-05T00:51:40.104Z,79.30
2019-04-05T00:55:43.130Z,78.30
2019-04-05T00:59:46.149Z,78.50
2019-04-05T01:03:49.160Z,77.80
2019-04-05T01:07:52.304Z,77.60
2019-04-05T01:11:55.909Z,78.30
2019-04-05T01:15:58.999Z,77.90
2019-04-05T01:20:02.835Z,77.90
2019-04-05T01:24:06.170Z,78.40
2019-04-05T01:28:09.176Z,79.50
2019-04-05T01:32:12.193Z,79.20
2019-04-05T01:36:15.752Z,79.70
2019-04-05T01:40:18.780Z,79.60
2019-04-05T01:44:21.792Z,79.50
2019-04-05T01:48:24.815Z,79.50
2019-04-05T01:52:28.556Z,79.90
2019-04-05T01:56:31.595Z,79.90
2019-04-05T02:00:34.604Z,79.20
2019-04-05T02:04:37.672Z,79.60
2019-04-05T02:08:40.795Z,79.20
2019-04-05T02:12:43.820Z,78.90
2019-04-05T02:16:46.878Z,79.40
2019-04-05T02:20:49.911Z,79.20
2019-04-05T02:24:53.145Z,79.40
2019-04-05T02:28:56.153Z,80.00
2019-04-05T02:32:59.190Z,79.40
2019-04-05T02:37:03.265Z,79.40
2019-04-05T02:41:07.073Z,80.00
2019-04-05T02:45:11.289Z,79.20
2019-04-05T02:49:14.916Z,80.00
2019-04-05T02:53:18.459Z,79.50
2019-04-05T02:57:21.664Z,79.80
2019-04-05T03:01:24.966Z,79.90
2019-04-05T03:05:28.695Z,79.70
2019-04-05T03:09:32.744Z,79.40
2019-04-05T03:13:39.593Z,79.30
2019-04-05T03:17:42.602Z,79.80
2019-04-05T03:21:49.353Z,80.10
2019-04-05T03:25:54.186Z,79.50
2019-04-05T03:29:57.285Z,80.30
2019-04-05T03:34:00.927Z,79.40
2019-04-05T03:38:06.009Z,79.20
2019-04-05T03:42:09.620Z,79.70
2019-04-05T03:46:12.825Z,78.90
2019-04-05T03:50:16.331Z,79.00
2019-04-05T03:54:19.387Z,79.40
2019-04-05T03:58:22.563Z,79.80
2019-04-05T04:02:25.577Z,79.60
2019-04-05T04:06:29.317Z,80.00
2019-04-05T04:10:32.830Z,79.70
2019-04-05T04:14:35.935Z,80.30
2019-04-05T04:18:39.178Z,80.40
2019-04-05T04:22:42.173Z,79.10
2019-04-05T04:26:45.328Z,79.00
2019-04-05T04:30:48.547Z,79.10
2019-04-05T04:34:52.030Z,79.30
2019-04-05T04:38:57.035Z,78.80
2019-04-05T04:43:00.786Z,79.40
2019-04-05T04:47:04.475Z,79.10
2019-04-05T04:51:08.552Z,78.40
2019-04-05T04:55:11.790Z,78.50
2019-04-05T04:59:15.081Z,78.70
2019-04-05T05:03:18.356Z,79.00
2019-04-05T05:07:21.407Z,78.30
2019-04-05T05:11:24.467Z,78.90
2019-04-05T05:15:27.980Z,78.70
2019-04-05T05:19:31.049Z,79.50
2019-04-05T05:23:34.095Z,79.30
2019-04-05T05:27:37.368Z,79.60
2019-04-05T05:31:40.839Z,83.20
2019-04-05T05:35:44.009Z,79.00
2019-04-05T05:39:48.750Z,79.20
2019-04-05T05:43:51.791Z,79.60
2019-04-05T05:47:54.945Z,79.20
2019-04-05T05:51:58.480Z,79.20
2019-04-05T05:56:01.521Z,78.80
2019-04-05T06:00:07.535Z,79.00
2019-04-05T06:04:12.768Z,78.20
2019-04-05T06:08:15.837Z,78.90
2019-04-05T06:12:18.914Z,78.90
2019-04-05T06:16:21.938Z,78.40
2019-04-05T06:20:25.003Z,78.50
2019-04-05T06:24:28.072Z,78.60
2019-04-05T06:32:33.274Z,78.20
2019-04-05T06:36:36.333Z,78.70
2019-04-05T06:40:41.476Z,79.30
2019-04-05T06:44:44.552Z,78.50
2019-04-05T06:48:47.578Z,78.60
2019-04-05T06:52:50.597Z,78.30
2019-04-05T06:56:57.559Z,77.80
2019-04-05T07:01:00.714Z,77.70
2019-04-05T07:05:05.130Z,77.00
2019-04-05T07:09:08.137Z,76.60
2019-04-05T07:13:11.125Z,76.40
2019-04-05T07:17:14.119Z,76.70
2019-04-05T07:21:17.537Z,76.80
2019-04-05T07:25:20.619Z,76.40
2019-04-05T07:29:23.638Z,76.10
2019-04-05T07:33:26.726Z,76.80
2019-04-05T07:37:29.817Z,75.70
2019-04-05T07:41:33.971Z,76.00
2019-04-05T07:45:36.997Z,76.20
2019-04-05T07:49:40.058Z,75.20
2019-04-05T07:53:43.124Z,75.30
2019-04-05T07:57:46.111Z,75.60
2019-04-05T08:01:49.125Z,75.70
2019-04-05T08:05:52.235Z,75.20
2019-04-05T08:09:55.623Z,74.20
2019-04-05T08:14:00.704Z,74.10
2019-04-05T08:18:03.818Z,73.70
2019-04-05T08:22:06.810Z,75.80
2019-04-05T08:26:09.839Z,76.00
2019-04-05T08:30:13.040Z,74.00
2019-04-05T08:34:16.055Z,73.90
2019-04-05T08:38:19.086Z,72.50
2019-04-05T08:42:23.962Z,72.70
2019-04-05T08:46:27.046Z,71.50
2019-04-05T08:50:30.054Z,72.30
2019-04-05T08:54:36.533Z,73.90
2019-04-05T08:58:39.135Z,74.00
2019-04-05T09:02:42.191Z,74.90
2019-04-05T09:06:45.263Z,74.50
2019-04-05T09:10:48.328Z,75.20
2019-04-05T09:14:51.353Z,76.30
2019-04-05T09:18:54.361Z,76.10
2019-04-05T09:22:57.393Z,75.80
2019-04-05T09:27:00.421Z,75.70
2019-04-05T09:31:03.656Z,75.10
2019-04-05T09:35:06.777Z,73.50
2019-04-05T09:39:15.402Z,72.50
2019-04-05T09:43:17.942Z,73.00
2019-04-05T09:47:21.031Z,72.00
2019-04-05T09:51:24.057Z,72.70
2019-04-05T09:55:28.200Z,73.60
2019-04-05T09:59:31.293Z,74.10
2019-04-05T10:03:34.390Z,73.10
2019-04-05T10:07:48.523Z,71.90
2019-04-05T10:11:42.328Z,72.40
2019-04-05T10:15:45.346Z,71.10
2019-04-05T10:19:50.057Z,71.50
2019-04-05T10:23:53.373Z,70.80
2019-04-05T10:27:56.422Z,72.90
2019-04-05T10:31:59.496Z,71.60
2019-04-05T10:36:02.804Z,70.10
2019-04-05T10:40:07.159Z,70.00
2019-04-05T10:44:12.703Z,68.70
2019-04-05T10:48:15.704Z,69.10
2019-04-05T10:52:18.725Z,69.40
2019-04-05T10:56:21.849Z,71.60
2019-04-05T11:00:24.964Z,69.50
2019-04-05T11:04:28.096Z,67.40
2019-04-05T11:08:31.154Z,70.50
2019-04-05T11:12:34.267Z,69.50
2019-04-05T11:16:37.429Z,69.80
2019-04-05T11:20:42.996Z,69.00
2019-04-05T11:24:46.021Z,68.80
2019-04-05T11:28:49.388Z,69.40
2019-04-05T11:32:52.366Z,69.60
2019-04-05T11:36:55.924Z,68.60
2019-04-05T11:40:59.039Z,70.70
2019-04-05T11:45:06.627Z,71.00
2019-04-05T11:49:11.444Z,71.20
2019-04-05T11:53:14.574Z,71.70
2019-04-05T11:57:17.633Z,70.70
2019-04-05T12:01:23.683Z,71.50
2019-04-05T12:05:27.344Z,71.20
2019-04-05T12:09:30.535Z,70.80
2019-04-05T12:13:33.558Z,69.50
2019-04-05T12:17:36.595Z,70.70
2019-04-05T12:21:39.703Z,71.10
2019-04-05T12:25:42.757Z,71.20
2019-04-05T12:29:45.801Z,72.40
2019-04-05T12:33:51.403Z,71.90
2019-04-05T12:37:55.815Z,72.90
2019-04-05T12:41:58.743Z,70.30
2019-04-05T12:46:03.942Z,70.90
2019-04-05T12:50:07.932Z,71.80
2019-04-05T12:54:11.021Z,71.90
2019-04-05T12:58:14.137Z,71.00
2019-04-05T13:02:20.594Z,71.00
2019-04-05T13:06:22.664Z,70.70
2019-04-05T13:10:30.200Z,70.80
2019-04-05T13:14:31.581Z,76.50
2019-04-05T13:18:34.596Z,71.90
2019-04-05T13:22:37.612Z,70.50
2019-04-05T13:26:41.999Z,70.80
2019-04-05T13:30:48.247Z,70.50
2019-04-05T13:34:50.573Z,69.70
2019-04-05T13:38:54.959Z,69.60
2019-04-05T13:43:01.424Z,69.90
2019-04-05T13:47:06.491Z,71.40
2019-04-05T13:51:12.910Z,71.50
2019-04-05T13:55:15.879Z,71.70
2019-04-05T13:59:18.912Z,71.70
2019-04-05T14:03:21.918Z,70.90
2019-04-05T14:07:25.367Z,70.70
2019-04-05T14:11:28.551Z,70.10
2019-04-05T14:15:31.691Z,70.80
2019-04-05T14:19:35.017Z,70.40
2019-04-05T14:27:42.975Z,69.80
2019-04-05T14:31:46.132Z,70.90
2019-04-05T14:35:49.156Z,70.30
2019-04-05T14:39:52.234Z,70.00
2019-04-05T14:43:55.240Z,70.40
2019-04-05T14:48:00.457Z,70.80
2019-04-05T14:52:03.715Z,71.00
2019-04-05T14:56:06.725Z,71.10
2019-04-05T15:00:10.146Z,71.70
2019-04-05T15:04:13.134Z,71.50
2019-04-05T15:08:16.131Z,72.40
2019-04-05T15:12:19.163Z,72.10
2019-04-05T15:16:23.531Z,72.40
2019-04-05T15:20:26.678Z,72.50
2019-04-05T15:24:29.734Z,72.90
2019-04-05T15:28:32.833Z,73.30
2019-04-05T15:32:36.816Z,73.10
2019-04-05T15:36:39.926Z,73.20
2019-04-05T15:40:43.030Z,73.40
2019-04-05T15:44:46.026Z,73.70
2019-04-05T15:48:51.816Z,73.80
2019-04-05T15:52:54.756Z,74.10
2019-04-05T15:56:57.966Z,74.60
2019-04-05T16:01:04.175Z,74.70
2019-04-05T16:05:07.479Z,74.60
2019-04-05T16:09:12.584Z,74.40
2019-04-05T16:13:15.785Z,74.30
2019-04-05T16:17:18.795Z,74.60
2019-04-05T16:21:21.795Z,75.20
2019-04-05T16:25:24.824Z,75.60
2019-04-05T16:29:27.853Z,76.20
2019-04-05T16:33:31.010Z,75.70
2019-04-05T16:37:34.025Z,76.70
2019-04-05T16:41:37.050Z,76.60
2019-04-05T16:45:40.050Z,77.40
2019-04-05T16:49:43.766Z,77.50
2019-04-05T16:53:59.423Z,77.50
2019-04-05T16:58:02.564Z,77.50
2019-04-05T17:02:05.613Z,77.80
2019-04-05T17:06:08.645Z,78.10
2019-04-05T17:10:12.074Z,77.40
2019-04-05T17:14:15.167Z,78.00
2019-04-05T17:18:18.224Z,77.60
2019-04-05T17:22:21.280Z,78.70
2019-04-05T17:26:24.325Z,79.20
2019-04-05T17:30:27.450Z,79.40
2019-04-05T17:34:30.496Z,79.30
2019-04-05T17:38:34.546Z,79.80
2019-04-05T17:42:37.555Z,80.90
2019-04-05T17:46:40.626Z,81.40
2019-04-05T17:50:44.126Z,81.40
2019-04-05T17:54:47.235Z,81.00
2019-04-05T17:58:50.476Z,81.10
2019-04-05T18:02:53.566Z,81.20
2019-04-05T18:06:56.612Z,82.10
2019-04-05T18:10:59.784Z,81.80
2019-04-05T18:15:03.544Z,81.50
2019-04-05T18:19:06.569Z,80.90
2019-04-05T18:23:09.606Z,81.10
2019-04-05T18:27:12.626Z,81.20
2019-04-05T18:31:15.686Z,81.60
2019-04-05T18:35:18.709Z,82.40
2019-04-05T18:39:21.775Z,82.60
2019-04-05T18:43:24.782Z,83.00
2019-04-05T18:47:27.803Z,82.70
2019-04-05T18:51:32.291Z,82.70
2019-04-05T18:55:35.395Z,82.50
2019-04-05T18:59:38.447Z,82.10
2019-04-05T19:03:41.989Z,81.80
2019-04-05T19:07:45.073Z,83.00
2019-04-05T19:11:48.189Z,83.00
2019-04-05T19:15:51.260Z,83.60
2019-04-05T19:19:54.389Z,84.10
2019-04-05T19:23:57.415Z,84.50
2019-04-05T19:28:00.411Z,84.30
2019-04-05T19:48:30.874Z,85.80
2019-04-05T19:52:30.595Z,87.10
2019-04-05T19:56:33.958Z,85.20
2019-04-05T20:00:36.974Z,85.00
2019-04-05T20:04:39.968Z,84.20
2019-04-05T20:08:42.994Z,83.40
2019-04-05T20:12:46.103Z,82.70
2019-04-05T20:16:49.132Z,82.50
2019-04-05T20:20:52.149Z,82.10
2019-04-05T20:24:55.139Z,81.40
2019-04-05T20:28:58.143Z,81.60
2019-04-05T20:33:01.152Z,81.50
2019-04-05T20:37:04.154Z,82.60
2019-04-05T20:41:07.149Z,82.10
2019-04-05T20:45:10.260Z,82.50
2019-04-05T20:49:13.267Z,82.70
2019-04-05T20:53:17.972Z,82.20
2019-04-05T20:57:20.965Z,82.60
2019-04-05T21:01:23.974Z,82.10
2019-04-05T21:05:26.965Z,81.80
2019-04-05T21:09:30.106Z,81.70
2019-04-05T21:13:33.188Z,81.50
2019-04-05T21:17:36.183Z,81.60
2019-04-05T21:21:39.199Z,81.80
2019-04-05T21:25:42.200Z,81.80
2019-04-05T21:29:45.219Z,82.00
2019-04-05T21:33:48.229Z,81.70
2019-04-05T21:37:51.243Z,81.90
2019-04-05T21:41:54.240Z,81.90
2019-04-05T21:46:04.770Z,82.70
2019-04-05T21:50:15.591Z,83.30
2019-04-05T21:54:28.370Z,83.30
2019-04-05T21:58:38.521Z,83.70
2019-04-05T22:02:49.559Z,83.20
2019-04-05T22:06:53.889Z,82.60
2019-04-05T22:10:57.010Z,82.70
2019-04-05T22:15:00.021Z,83.20
2019-04-05T22:19:03.028Z,83.40
2019-04-05T22:23:06.043Z,83.80
2019-04-05T22:27:09.052Z,84.00
2019-04-05T22:31:12.109Z,83.80
2019-04-05T22:35:15.126Z,84.60
2019-04-05T22:39:18.216Z,85.10
2019-04-05T22:43:21.219Z,86.50
2019-04-05T22:47:24.307Z,87.10
2019-04-05T22:51:27.407Z,87.00
2019-04-05T22:55:32.196Z,85.40
2019-04-05T22:59:35.244Z,86.90
2019-04-05T23:03:38.251Z,86.70
2019-04-05T23:07:41.264Z,86.40
2019-04-05T23:11:44.266Z,86.30
2019-04-05T23:15:47.428Z,86.30
2019-04-05T23:19:50.431Z,86.30
2019-04-05T23:23:53.533Z,85.90
2019-04-05T23:27:56.536Z,86.50
2019-04-05T23:31:59.663Z,84.50
2019-04-05T23:36:03.039Z,83.70
2019-04-05T23:40:06.122Z,83.70
2019-04-05T23:44:09.194Z,83.10
2019-04-05T23:48:12.316Z,82.90
2019-04-05T23:52:15.337Z,83.00
2019-04-05T23:56:19.440Z,83.90
